Wetterdaten: Juli 2016
Datum Temp Feuchte Luftdruck Regen Wind Richtung Sonnenschein UV Solar Windben
01.07.2016 18,5 C 80 % 1011,9 hPa 0,4 l/m 3,5 km/h S 2,08 h 2,2 UV-I 199 W/m 13,3 km/h
02.07.2016 13,9 C 79 % 1013,6 hPa 4,4 l/m 1,0 km/h S 3,67 h 2,5 UV-I 256 W/m 9,6 km/h
03.07.2016 15,5 C 68 % 1019,3 hPa 0,0 l/m 0,6 km/h W-NW 6,58 h 2,9 UV-I 362 W/m 3,6 km/h
04.07.2016 17,5 C 73 % 1018,6 hPa 0,0 l/m 0,6 km/h S 4,92 h 3,6 UV-I 347 W/m 2,4 km/h
05.07.2016 16,5 C 77 % 1013,5 hPa 1,0 l/m 4,9 km/h S-SW 2,50 h 2,3 UV-I 226 W/m 19,3 km/h
06.07.2016 15,0 C 72 % 1019,0 hPa 0,0 l/m 1,9 km/h NW 3,50 h 2,4 UV-I 280 W/m 11,7 km/h
07.07.2016 17,1 C 70 % 1019,5 hPa 0,0 l/m 1,1 km/h W-NW 9,92 h 4,1 UV-I 426 W/m 4,4 km/h
08.07.2016 18,5 C 73 % 1014,6 hPa 0,2 l/m 4,1 km/h S 2,42 h 1,9 UV-I 205 W/m 18,9 km/h
09.07.2016 19,5 C 72 % 1016,9 hPa 0,6 l/m 1,7 km/h W-NW 7,83 h 3,5 UV-I 405 W/m 8,5 km/h
10.07.2016 23,0 C 73 % 1009,7 hPa 0,0 l/m 4,2 km/h S 8,00 h 3,4 UV-I 356 W/m 6,8 km/h
11.07.2016 20,3 C 67 % 1008,7 hPa 0,0 l/m 1,6 km/h W-NW 6,75 h 3,4 UV-I 349 W/m 8,5 km/h
12.07.2016 18,1 C 67 % 1011,0 hPa 0,2 l/m 1,6 km/h S 5,25 h 2,8 UV-I 315 W/m 6,4 km/h
13.07.2016 16,5 C 76 % 1012,3 hPa 0,2 l/m 0,7 km/h NW 6,50 h 2,9 UV-I 370 W/m 3,6 km/h
14.07.2016 13,8 C 82 % 1017,6 hPa 3,8 l/m 6,6 km/h N-NW 2,67 h 2,0 UV-I 246 W/m 21,8 km/h
15.07.2016 15,4 C 73 % 1023,4 hPa 1,2 l/m 0,3 km/h N-NW 2,67 h 2,3 UV-I 240 W/m 1,2 km/h
16.07.2016 17,3 C 81 % 1023,0 hPa 0,0 l/m 0,4 km/h W-NW 2,50 h 2,4 UV-I 230 W/m 2,0 km/h
17.07.2016 20,6 C 74 % 1019,1 hPa 3,0 l/m 1,6 km/h NW 4,08 h 2,8 UV-I 280 W/m 10,4 km/h
18.07.2016 19,8 C 73 % 1020,4 hPa 0,0 l/m 0,8 km/h N-NW 9,67 h 3,5 UV-I 424 W/m 4,8 km/h
19.07.2016 22,9 C 62 % 1019,6 hPa 0,0 l/m 0,4 km/h N-NO 12,58 h 4,2 UV-I 468 W/m 2,0 km/h
20.07.2016 25,4 C 56 % 1012,9 hPa 1,0 l/m 1,5 km/h SO 12,58 h 4,1 UV-I 480 W/m 7,3 km/h
21.07.2016 23,3 C 73 % 1013,2 hPa 0,2 l/m 0,7 km/h N-NW 9,75 h 3,2 UV-I 418 W/m 6,8 km/h
22.07.2016 19,8 C 84 % 1015,4 hPa 1,0 l/m 0,4 km/h N-NO 4,92 h 1,8 UV-I 199 W/m 3,6 km/h
23.07.2016 18,1 C 91 % 1017,5 hPa 2,4 l/m 0,0 km/h S-SO 0,08 h 1,2 UV-I 117 W/m 0,0 km/h
24.07.2016 21,6 C 72 % 1017,6 hPa 0,0 l/m 0,3 km/h W-NW 7,08 h 3,3 UV-I 351 W/m 2,0 km/h
25.07.2016 21,8 C 75 % 1017,3 hPa 0,0 l/m 0,8 km/h NW 6,42 h 2,9 UV-I 341 W/m 4,0 km/h
26.07.2016 19,5 C 84 % 1018,7 hPa 5,0 l/m 0,3 km/h W-NW 6,25 h 3,2 UV-I 338 W/m 2,8 km/h
27.07.2016 18,7 C 74 % 1015,0 hPa 0,0 l/m 1,8 km/h W-NW 4,75 h 2,4 UV-I 288 W/m 5,6 km/h
28.07.2016 17,5 C 89 % 1013,5 hPa 1,8 l/m 0,6 km/h S 1,50 h 1,8 UV-I 179 W/m 2,8 km/h
29.07.2016 17,9 C 83 % 1011,3 hPa 4,0 l/m 0,4 km/h S 2,67 h 2,1 UV-I 223 W/m 5,6 km/h
30.07.2016 18,9 C 77 % 1011,4 hPa 0,0 l/m 0,3 km/h W-SW 5,50 h 2,8 UV-I 326 W/m 4,8 km/h
31.07.2016 15,9 C 91 % 1013,2 hPa 6,6 l/m 0,9 km/h NW 0,75 h 1,6 UV-I 138 W/m 5,2 km/h
Min-Datum 07.07.16 19.07.16 11.07.16 18 Tage 01.07.16 - - - - 01.07.16
Min-Zeit 05:35 16:40 02:25 - 00:00 - - - - 00:00
Minimum 7,2 C 36 % 1006,5 hPa - 0,0 km/h - - - - 0,0 km/h
Max-Datum 20.07.16 27.07.16 16.07.16 31.07.16 05.07.16 - 19.07.16 10.07.16 17.07.16 05.07.16
Max-Zeit 16:30 07:45 00:25 15:50 21:35 - 19:55 13:40 12:40 20:35
Maximum 31,3 C 97 % 1024,2 hPa 6,6 l/m 21,7 km/h
S-SW
- 12,50 h 8,5 UV-I 1220 W/m 46,7 km/h
W-NW
Durchschnitt 18,7 C 75 % 1015,8 hPa #37,0 l/m 1,5 km/h S #166:20 h 2,8 UV-I 303 W/m 6,8 km/h

Durchschnitt Minimum Temp.13,5 C
Durchschnitt Maximum Temp.23,8 C